AirNav   Air Wisconsin pilot careers
 
 717 users online  

AL93 Big Sky Airport
Huntsville, Alabama, USA

GOING TO HUNTSVILLE?


FAA INFORMATION EFFECTIVE 31 JANUARY 2019

Location

FAA Identifier: AL93
Lat/Long: 34-53-08.3160N / 086-42-35.9920W
34-53.138600N / 086-42.599867W
34.8856433 / -86.7099978
(estimated)
Elevation: 830 ft. / 253 m (estimated)
Variation: 01W (1990)
From city: 12 miles NW of HUNTSVILLE, AL
Time zone: UTC -6 (UTC -5 during Daylight Saving Time)
Zip code: 35773

Airport Operations

Airport use: Private use. Permission required prior to landing
Activation date: 02/1992
Control tower: no
ARTCC: MEMPHIS CENTER
FSS: ANNISTON FLIGHT SERVICE STATION
Attendance: IREG
Wind indicator: yes
Segmented circle: no

Airport Communications

WX AWOS-3PT at MDQ (8 nm E): 120.000 (256-829-1242)
WX AWOS-3 at FYM (13 nm NE): 135.275 (931-433-5916)
WX ASOS at HSV (15 nm S): PHONE 256-772-8074
WX ASOS at DCU (18 nm SW): 118.375 (256-350-4270)

Nearby radio navigation aids

VOR radial/distance  VOR name  Freq  Var
RQZr323/6.5ROCKET VORTAC112.2002E
DCUr039/18.2DECATUR VOR/DME112.8001W
MSLr073/40.0MUSCLE SHOALS VORTAC116.5001E

 
NDB name  Hdg/Dist  Freq  Var  ID
REDSTONE358/11.328704WHUA .... ..- .-

Airport Services

Runway Information

Runway 18/36

Dimensions: 2000 x 80 ft. / 610 x 24 m
Surface: turf, in good condition
RUNWAY 18  RUNWAY 36
Traffic pattern: leftright
Displaced threshold: no400 ft.
RWY 36 THRD MKD WITH CONES.
Obstructions: none60 ft. trees, 400 ft. from runway

Airport Ownership and Management from official FAA records

Ownership: Privately-owned
Owner: CHRISTOPHER A BARBER
437 WILL RABY RD
TONEY, AL 35773
Phone (256) 693-9544
Manager: CHRISTOPHER A BARBER
437 WILL RABY RD
TONEY, AL 35773
Phone (256) 693-9544

Airport Operational Statistics

Aircraft based on the field: 3
Single engine airplanes: 2
Ultralights: 1
    

Instrument Procedures

There are no published instrument procedures at AL93.

Some nearby airports with instrument procedures:

KMDQ - Huntsville Executive Airport / Tom Sharp Jr Field (8 nm E)
KHUA - Redstone Army Airfield (12 nm S)
KFYM - Fayetteville Municipal Airport (13 nm NE)
KHSV - Huntsville International Airport-Carl T Jones Field (15 nm S)
KDCU - Pryor Field Regional Airport (18 nm SW)
 
Loc | Ops | Rwys | IFR | FBO | Links
Com | Nav | Svcs | Stats | Notes
Area around AL93 (Big Sky Airport)
 
Road maps at: MapQuest Bing Google
 
Aerial photo
No photo
 
Sectional chart

 
Airport distance calculator
Flying to Big Sky Airport? Find the distance to fly.

From to AL93

Sunrise and sunset
Times for 15-Feb-2019
 Local
(UTC-6)
 Zulu
(UTC)
Morning civil twilight06:0812:08
Sunrise06:3412:34
Sunset17:2823:28
Evening civil twilight17:5423:54

Current date and time
Zulu (UTC)  16-Feb-2019 03:39:23
Local (UTC-6)  15-Feb-2019 21:39:23
 
METAR
KMDQ 
8nm E 
160315Z AUTO 02005KT 7SM -RA BR OVC006 09/08 A2976 RMK A02 T00920085
KHUA 
12nm S 
160258Z AUTO 06007KT 1 1/4SM -RA BR FEW003 OVC046 10/09 A2974 RMK AO2 SLP071 P0016 60032 T00970094 58014
KFYM 
13nm NE 
160320Z AUTO 02008KT 3SM BR OVC003 08/08 A2976 RMK A01
KHSV 
15nm S 
160310Z 02005KT 6SM -RA BR SCT006 BKN022 OVC043 11/10 A2975 RMK AO2 P0006 T01060100 $
KDCU 
18nm SW 
160323Z AUTO 03006KT 7SM -RA OVC009 09/08 A2976 RMK AO2 CIG 005V012 P0001 T00890083
TAF
KHSV 
15nm S 
151730Z 1518/1618 21006KT P6SM VCSH OVC015 FM152100 06008KT 4SM SHRA BR SCT005 OVC010 FM160300 34012KT 4SM SHRA BR SCT004 OVC007 FM160900 36011KT 6SM -SHRA BR OVC009 FM161400 01008KT P6SM OVC015
NOTAMs
Click for the latest NOTAMs
NOTAMs are issued by the DoD/FAA and will open in a separate window not controlled by AirNav.

 

 
 

Would you like to see your business listed on this page?

 If your business provides an interesting product or service to pilots, flight crews, aircraft, or users of the Big Sky Airport, you should consider listing it here.  To start the listing process, click on the button below
 
Add a business
 

Other Pages about Big Sky Airport

Update a link
 
Copyright © AirNav, LLC. All rights reserved. Privacy Policy  Contact